sensor_id;sensor_type;location;lat;lon;timestamp;pressure;altitude;pressure_sealevel;temperature;humidity
8059;BME280;4072;42.668;23.396;2023-07-09T00:01:54;95488.09;;;21.00;91.05
8059;BME280;4072;42.668;23.396;2023-07-09T00:04:23;95458.38;;;20.76;91.37
8059;BME280;4072;42.668;23.396;2023-07-09T00:06:51;95492.34;;;20.95;91.47
8059;BME280;4072;42.668;23.396;2023-07-09T00:09:21;95476.59;;;21.01;91.42
8059;BME280;4072;42.668;23.396;2023-07-09T00:11:51;95480.84;;;21.02;90.05
8059;BME280;4072;42.668;23.396;2023-07-09T00:14:20;95483.31;;;21.11;90.46
8059;BME280;4072;42.668;23.396;2023-07-09T00:16:50;95475.28;;;21.13;89.34
8059;BME280;4072;42.668;23.396;2023-07-09T00:19:20;95475.56;;;21.10;89.98
8059;BME280;4072;42.668;23.396;2023-07-09T00:21:51;95440.09;;;20.84;90.37
8059;BME280;4072;42.668;23.396;2023-07-09T00:24:21;95476.81;;;21.09;89.94
8059;BME280;4072;42.668;23.396;2023-07-09T00:26:50;95465.81;;;21.14;89.91
8059;BME280;4072;42.668;23.396;2023-07-09T00:29:19;95466.31;;;21.07;90.03
8059;BME280;4072;42.668;23.396;2023-07-09T00:31:47;95466.28;;;21.18;89.31
8059;BME280;4072;42.668;23.396;2023-07-09T00:34:18;95469.34;;;20.98;90.48
8059;BME280;4072;42.668;23.396;2023-07-09T00:36:48;95430.88;;;20.76;90.73
8059;BME280;4072;42.668;23.396;2023-07-09T00:39:19;95469.09;;;20.91;91.18
8059;BME280;4072;42.668;23.396;2023-07-09T00:41:49;95468.84;;;20.94;90.90
8059;BME280;4072;42.668;23.396;2023-07-09T00:44:25;95467.34;;;21.04;90.59
8059;BME280;4072;42.668;23.396;2023-07-09T00:47:18;95467.56;;;21.06;89.68
8059;BME280;4072;42.668;23.396;2023-07-09T00:50:08;95464.78;;;21.17;88.31
8059;BME280;4072;42.668;23.396;2023-07-09T00:52:40;95464.06;;;21.11;88.60
8059;BME280;4072;42.668;23.396;2023-07-09T00:55:17;95464.28;;;21.13;88.89
8059;BME280;4072;42.668;23.396;2023-07-09T00:57:50;95462.03;;;21.23;88.41
8059;BME280;4072;42.668;23.396;2023-07-09T01:00:28;95455.28;;;21.18;88.41
8059;BME280;4072;42.668;23.396;2023-07-09T01:03:05;95384.41;;;20.78;87.89
8059;BME280;4072;42.668;23.396;2023-07-09T01:05:36;95442.31;;;21.02;88.88
8059;BME280;4072;42.668;23.396;2023-07-09T01:08:06;95377.19;;;20.59;88.85
8059;BME280;4072;42.668;23.396;2023-07-09T01:10:36;95462.84;;;21.01;90.14
8059;BME280;4072;42.668;23.396;2023-07-09T01:13:07;95470.09;;;20.99;90.31
8059;BME280;4072;42.668;23.396;2023-07-09T01:15:36;95471.09;;;20.90;91.17
8059;BME280;4072;42.668;23.396;2023-07-09T01:18:05;95464.13;;;20.84;92.57
8059;BME280;4072;42.668;23.396;2023-07-09T01:20:38;95445.16;;;20.64;94.81
8059;BME280;4072;42.668;23.396;2023-07-09T01:23:09;95426.47;;;20.18;98.00
8059;BME280;4072;42.668;23.396;2023-07-09T01:25:41;95463.69;;;20.30;100.00
8059;BME280;4072;42.668;23.396;2023-07-09T01:28:10;95383.47;;;19.60;100.00
8059;BME280;4072;42.668;23.396;2023-07-09T01:30:40;95458.38;;;19.88;100.00
8059;BME280;4072;42.668;23.396;2023-07-09T01:33:09;95454.34;;;19.56;100.00
8059;BME280;4072;42.668;23.396;2023-07-09T01:35:39;95461.75;;;19.39;100.00
8059;BME280;4072;42.668;23.396;2023-07-09T01:38:10;95462.44;;;19.23;100.00
8059;BME280;4072;42.668;23.396;2023-07-09T01:40:39;95458.13;;;19.11;100.00
8059;BME280;4072;42.668;23.396;2023-07-09T01:43:07;95455.72;;;18.76;100.00
8059;BME280;4072;42.668;23.396;2023-07-09T01:45:36;95468.31;;;18.52;100.00
8059;BME280;4072;42.668;23.396;2023-07-09T01:48:06;95470.59;;;18.28;100.00
8059;BME280;4072;42.668;23.396;2023-07-09T01:50:43;95470.28;;;17.95;100.00
8059;BME280;4072;42.668;23.396;2023-07-09T01:53:14;95297.91;;;16.61;100.00
8059;BME280;4072;42.668;23.396;2023-07-09T01:55:44;95483.63;;;17.82;100.00
8059;BME280;4072;42.668;23.396;2023-07-09T01:58:12;95479.31;;;17.75;100.00
8059;BME280;4072;42.668;23.396;2023-07-09T02:00:43;95481.88;;;17.59;100.00
8059;BME280;4072;42.668;23.396;2023-07-09T02:03:12;95484.13;;;17.60;100.00
8059;BME280;4072;42.668;23.396;2023-07-09T02:05:40;95489.28;;;17.52;100.00
8059;BME280;4072;42.668;23.396;2023-07-09T02:08:09;95480.75;;;17.45;100.00
8059;BME280;4072;42.668;23.396;2023-07-09T02:10:38;95482.63;;;17.39;100.00
8059;BME280;4072;42.668;23.396;2023-07-09T02:13:06;95478.75;;;17.45;100.00
8059;BME280;4072;42.668;23.396;2023-07-09T02:15:34;95481.34;;;17.34;100.00
8059;BME280;4072;42.668;23.396;2023-07-09T02:18:03;95483.94;;;17.23;100.00
8059;BME280;4072;42.668;23.396;2023-07-09T02:20:31;95477.59;;;17.12;100.00
8059;BME280;4072;42.668;23.396;2023-07-09T02:23:00;95484.38;;;16.96;100.00
8059;BME280;4072;42.668;23.396;2023-07-09T02:25:28;95481.28;;;16.89;100.00
8059;BME280;4072;42.668;23.396;2023-07-09T02:27:58;95492.66;;;16.67;100.00
8059;BME280;4072;42.668;23.396;2023-07-09T02:30:26;95498.28;;;16.29;100.00
8059;BME280;4072;42.668;23.396;2023-07-09T02:32:54;95496.03;;;16.13;100.00
8059;BME280;4072;42.668;23.396;2023-07-09T02:35:22;95502.16;;;16.08;100.00
8059;BME280;4072;42.668;23.396;2023-07-09T02:37:51;95507.31;;;16.06;100.00
8059;BME280;4072;42.668;23.396;2023-07-09T02:40:20;95506.38;;;16.09;100.00
8059;BME280;4072;42.668;23.396;2023-07-09T02:42:48;95501.13;;;15.91;100.00
8059;BME280;4072;42.668;23.396;2023-07-09T02:45:18;95513.25;;;16.05;100.00
8059;BME280;4072;42.668;23.396;2023-07-09T02:47:47;95525.31;;;15.98;100.00
8059;BME280;4072;42.668;23.396;2023-07-09T02:50:16;95496.31;;;16.01;100.00
8059;BME280;4072;42.668;23.396;2023-07-09T02:52:44;95523.41;;;16.19;100.00
8059;BME280;4072;42.668;23.396;2023-07-09T02:55:12;95522.09;;;16.14;100.00
8059;BME280;4072;42.668;23.396;2023-07-09T02:57:40;95517.28;;;16.09;100.00
8059;BME280;4072;42.668;23.396;2023-07-09T03:00:10;95520.97;;;16.21;100.00
8059;BME280;4072;42.668;23.396;2023-07-09T03:02:40;95532.63;;;16.21;100.00
8059;BME280;4072;42.668;23.396;2023-07-09T03:05:08;95540.63;;;16.10;100.00
8059;BME280;4072;42.668;23.396;2023-07-09T03:07:37;95543.28;;;16.19;100.00
8059;BME280;4072;42.668;23.396;2023-07-09T03:10:06;95537.53;;;16.32;100.00
8059;BME280;4072;42.668;23.396;2023-07-09T03:12:34;95541.66;;;16.13;100.00
8059;BME280;4072;42.668;23.396;2023-07-09T03:15:03;95531.19;;;15.82;100.00
8059;BME280;4072;42.668;23.396;2023-07-09T03:17:32;95536.81;;;15.64;100.00
8059;BME280;4072;42.668;23.396;2023-07-09T03:20:02;95540.47;;;15.61;100.00
8059;BME280;4072;42.668;23.396;2023-07-09T03:22:31;95542.38;;;15.55;100.00
8059;BME280;4072;42.668;23.396;2023-07-09T03:24:59;95543.00;;;15.50;100.00
8059;BME280;4072;42.668;23.396;2023-07-09T03:27:27;95544.78;;;15.53;100.00
8059;BME280;4072;42.668;23.396;2023-07-09T03:29:56;95542.94;;;15.59;100.00
8059;BME280;4072;42.668;23.396;2023-07-09T03:32:24;95532.13;;;15.65;100.00
8059;BME280;4072;42.668;23.396;2023-07-09T03:34:53;95542.56;;;15.81;100.00
8059;BME280;4072;42.668;23.396;2023-07-09T03:37:22;95540.53;;;15.90;100.00
8059;BME280;4072;42.668;23.396;2023-07-09T03:39:50;95498.72;;;15.55;100.00
8059;BME280;4072;42.668;23.396;2023-07-09T03:42:19;95534.59;;;16.06;100.00
8059;BME280;4072;42.668;23.396;2023-07-09T03:44:47;95547.13;;;16.27;100.00
8059;BME280;4072;42.668;23.396;2023-07-09T03:47:16;95536.41;;;16.24;100.00
8059;BME280;4072;42.668;23.396;2023-07-09T03:49:45;95540.16;;;16.55;100.00
8059;BME280;4072;42.668;23.396;2023-07-09T03:52:13;95537.88;;;16.68;100.00
8059;BME280;4072;42.668;23.396;2023-07-09T03:54:43;95420.75;;;15.92;100.00
8059;BME280;4072;42.668;23.396;2023-07-09T03:57:11;95522.44;;;16.65;100.00
8059;BME280;4072;42.668;23.396;2023-07-09T03:59:39;95547.78;;;17.00;100.00
8059;BME280;4072;42.668;23.396;2023-07-09T04:02:08;95549.44;;;17.12;100.00
8059;BME280;4072;42.668;23.396;2023-07-09T04:04:36;95515.53;;;17.04;100.00
8059;BME280;4072;42.668;23.396;2023-07-09T04:07:04;95548.53;;;17.21;100.00
8059;BME280;4072;42.668;23.396;2023-07-09T04:09:33;95557.38;;;17.30;100.00
8059;BME280;4072;42.668;23.396;2023-07-09T04:12:03;95555.19;;;17.34;100.00
8059;BME280;4072;42.668;23.396;2023-07-09T04:14:32;95557.25;;;17.39;100.00
8059;BME280;4072;42.668;23.396;2023-07-09T04:17:01;95556.34;;;17.28;100.00
8059;BME280;4072;42.668;23.396;2023-07-09T04:19:30;95538.63;;;17.23;100.00
8059;BME280;4072;42.668;23.396;2023-07-09T04:21:58;95567.63;;;17.35;100.00
8059;BME280;4072;42.668;23.396;2023-07-09T04:24:30;95565.31;;;17.28;100.00
8059;BME280;4072;42.668;23.396;2023-07-09T04:26:59;95565.03;;;17.26;100.00
8059;BME280;4072;42.668;23.396;2023-07-09T04:29:31;95574.47;;;17.25;100.00
8059;BME280;4072;42.668;23.396;2023-07-09T04:32:01;95567.91;;;17.37;100.00
8059;BME280;4072;42.668;23.396;2023-07-09T04:34:29;95542.75;;;17.33;100.00
8059;BME280;4072;42.668;23.396;2023-07-09T04:36:57;95558.22;;;17.57;100.00
8059;BME280;4072;42.668;23.396;2023-07-09T04:39:26;95554.50;;;17.60;100.00
8059;BME280;4072;42.668;23.396;2023-07-09T04:41:54;95584.88;;;17.62;100.00
8059;BME280;4072;42.668;23.396;2023-07-09T04:44:22;95575.78;;;17.90;100.00
8059;BME280;4072;42.668;23.396;2023-07-09T04:46:53;95574.28;;;18.15;100.00
8059;BME280;4072;42.668;23.396;2023-07-09T04:49:21;95570.88;;;18.51;100.00
8059;BME280;4072;42.668;23.396;2023-07-09T04:51:49;95567.03;;;18.63;100.00
8059;BME280;4072;42.668;23.396;2023-07-09T04:54:17;95578.22;;;18.65;100.00
8059;BME280;4072;42.668;23.396;2023-07-09T04:56:46;95572.66;;;18.85;100.00
8059;BME280;4072;42.668;23.396;2023-07-09T04:59:15;95571.41;;;18.86;100.00
8059;BME280;4072;42.668;23.396;2023-07-09T05:01:43;95566.78;;;19.03;100.00
8059;BME280;4072;42.668;23.396;2023-07-09T05:04:14;95572.81;;;19.07;100.00
8059;BME280;4072;42.668;23.396;2023-07-09T05:06:43;95569.97;;;19.27;100.00
8059;BME280;4072;42.668;23.396;2023-07-09T05:09:12;95524.44;;;19.09;100.00
8059;BME280;4072;42.668;23.396;2023-07-09T05:11:41;95565.44;;;19.77;100.00
8059;BME280;4072;42.668;23.396;2023-07-09T05:14:10;95572.44;;;19.89;100.00
8059;BME280;4072;42.668;23.396;2023-07-09T05:16:38;95520.16;;;19.45;100.00
8059;BME280;4072;42.668;23.396;2023-07-09T05:19:07;95456.66;;;19.15;100.00
8059;BME280;4072;42.668;23.396;2023-07-09T05:21:39;95569.72;;;19.89;100.00
8059;BME280;4072;42.668;23.396;2023-07-09T05:24:07;95565.63;;;19.68;100.00
8059;BME280;4072;42.668;23.396;2023-07-09T05:26:36;95582.75;;;20.05;100.00
8059;BME280;4072;42.668;23.396;2023-07-09T05:29:04;95584.81;;;20.32;100.00
8059;BME280;4072;42.668;23.396;2023-07-09T05:31:33;95580.13;;;21.04;100.00
8059;BME280;4072;42.668;23.396;2023-07-09T05:34:03;95574.84;;;21.01;100.00
8059;BME280;4072;42.668;23.396;2023-07-09T05:36:32;95540.09;;;21.14;100.00
8059;BME280;4072;42.668;23.396;2023-07-09T05:39:02;95570.94;;;21.64;100.00
8059;BME280;4072;42.668;23.396;2023-07-09T05:41:31;95569.09;;;21.94;100.00
8059;BME280;4072;42.668;23.396;2023-07-09T05:44:00;95560.16;;;22.23;100.00
8059;BME280;4072;42.668;23.396;2023-07-09T05:46:28;95505.19;;;22.01;100.00
8059;BME280;4072;42.668;23.396;2023-07-09T05:49:03;95436.84;;;21.94;100.00
8059;BME280;4072;42.668;23.396;2023-07-09T05:51:32;95586.66;;;22.72;100.00
8059;BME280;4072;42.668;23.396;2023-07-09T05:54:02;95574.53;;;23.11;100.00
8059;BME280;4072;42.668;23.396;2023-07-09T05:56:30;95572.22;;;23.15;100.00
8059;BME280;4072;42.668;23.396;2023-07-09T05:58:59;95549.50;;;23.33;100.00
8059;BME280;4072;42.668;23.396;2023-07-09T06:01:27;95480.63;;;23.16;97.00
8059;BME280;4072;42.668;23.396;2023-07-09T06:03:56;95524.00;;;23.45;95.09
8059;BME280;4072;42.668;23.396;2023-07-09T06:06:25;95567.25;;;24.22;91.65
8059;BME280;4072;42.668;23.396;2023-07-09T06:08:54;95561.06;;;24.98;79.29
8059;BME280;4072;42.668;23.396;2023-07-09T06:11:23;95567.72;;;25.21;74.98
8059;BME280;4072;42.668;23.396;2023-07-09T06:13:51;95564.69;;;24.93;75.02
8059;BME280;4072;42.668;23.396;2023-07-09T06:16:20;95582.63;;;25.18;72.21
8059;BME280;4072;42.668;23.396;2023-07-09T06:18:49;95533.56;;;25.44;69.17
8059;BME280;4072;42.668;23.396;2023-07-09T06:21:17;95567.16;;;26.27;66.29
8059;BME280;4072;42.668;23.396;2023-07-09T06:23:45;95562.94;;;26.46;63.30
8059;BME280;4072;42.668;23.396;2023-07-09T06:26:13;95538.88;;;26.82;60.43
8059;BME280;4072;42.668;23.396;2023-07-09T06:28:43;95565.66;;;27.69;57.67
8059;BME280;4072;42.668;23.396;2023-07-09T06:31:11;95503.75;;;27.33;56.23
8059;BME280;4072;42.668;23.396;2023-07-09T06:33:40;95573.78;;;27.88;54.31
8059;BME280;4072;42.668;23.396;2023-07-09T06:36:09;95568.00;;;27.86;52.54
8059;BME280;4072;42.668;23.396;2023-07-09T06:38:37;95563.47;;;28.03;51.78
8059;BME280;4072;42.668;23.396;2023-07-09T06:41:05;95568.31;;;28.11;51.45
8059;BME280;4072;42.668;23.396;2023-07-09T06:43:34;95549.41;;;28.09;52.78
8059;BME280;4072;42.668;23.396;2023-07-09T06:46:08;95564.13;;;27.89;52.86
8059;BME280;4072;42.668;23.396;2023-07-09T06:48:38;95557.78;;;27.81;52.47
8059;BME280;4072;42.668;23.396;2023-07-09T06:51:07;95560.72;;;27.47;50.89
8059;BME280;4072;42.668;23.396;2023-07-09T06:53:35;95567.72;;;27.20;53.76
8059;BME280;4072;42.668;23.396;2023-07-09T06:56:03;95555.69;;;26.97;55.12
8059;BME280;4072;42.668;23.396;2023-07-09T06:58:33;95536.84;;;27.03;54.70
8059;BME280;4072;42.668;23.396;2023-07-09T07:01:02;95498.53;;;26.81;52.65
8059;BME280;4072;42.668;23.396;2023-07-09T07:03:33;95538.59;;;27.34;54.36
8059;BME280;4072;42.668;23.396;2023-07-09T07:06:02;95558.63;;;27.96;52.06
8059;BME280;4072;42.668;23.396;2023-07-09T07:08:33;95547.56;;;28.12;51.46
8059;BME280;4072;42.668;23.396;2023-07-09T07:11:02;95553.44;;;28.00;52.05
8059;BME280;4072;42.668;23.396;2023-07-09T07:13:34;95543.50;;;28.28;49.86
8059;BME280;4072;42.668;23.396;2023-07-09T07:16:05;95561.78;;;28.44;48.73
8059;BME280;4072;42.668;23.396;2023-07-09T07:18:35;95543.09;;;28.08;47.52
8059;BME280;4072;42.668;23.396;2023-07-09T07:21:05;95558.78;;;28.42;46.70
8059;BME280;4072;42.668;23.396;2023-07-09T07:23:33;95554.59;;;28.13;47.86
8059;BME280;4072;42.668;23.396;2023-07-09T07:26:02;95555.25;;;27.90;45.64
8059;BME280;4072;42.668;23.396;2023-07-09T07:28:34;95547.78;;;27.85;47.50
8059;BME280;4072;42.668;23.396;2023-07-09T07:31:05;95547.44;;;28.32;48.05
8059;BME280;4072;42.668;23.396;2023-07-09T07:33:38;95551.78;;;28.56;47.67
8059;BME280;4072;42.668;23.396;2023-07-09T07:36:07;95544.03;;;28.92;45.59
8059;BME280;4072;42.668;23.396;2023-07-09T07:38:38;95509.91;;;28.18;46.92
8059;BME280;4072;42.668;23.396;2023-07-09T07:41:07;95487.06;;;28.04;45.66
8059;BME280;4072;42.668;23.396;2023-07-09T07:43:35;95540.09;;;28.06;46.31
8059;BME280;4072;42.668;23.396;2023-07-09T07:46:03;95525.56;;;27.85;46.98
8059;BME280;4072;42.668;23.396;2023-07-09T07:48:32;95511.41;;;27.76;47.33
8059;BME280;4072;42.668;23.396;2023-07-09T07:51:02;95523.09;;;28.18;43.58
8059;BME280;4072;42.668;23.396;2023-07-09T07:53:31;95536.44;;;28.19;45.89
8059;BME280;4072;42.668;23.396;2023-07-09T07:55:59;95534.78;;;28.16;45.11
8059;BME280;4072;42.668;23.396;2023-07-09T07:58:30;95542.00;;;28.12;44.60
8059;BME280;4072;42.668;23.396;2023-07-09T08:00:59;95537.19;;;28.20;44.29
8059;BME280;4072;42.668;23.396;2023-07-09T08:03:28;95542.72;;;28.12;45.26
8059;BME280;4072;42.668;23.396;2023-07-09T08:05:57;95534.94;;;28.11;44.82
8059;BME280;4072;42.668;23.396;2023-07-09T08:08:29;95546.06;;;28.84;43.11
8059;BME280;4072;42.668;23.396;2023-07-09T08:11:01;95538.44;;;28.62;44.50
8059;BME280;4072;42.668;23.396;2023-07-09T08:13:32;95534.25;;;28.25;44.18
8059;BME280;4072;42.668;23.396;2023-07-09T08:16:01;95525.91;;;28.33;44.40
8059;BME280;4072;42.668;23.396;2023-07-09T08:18:30;95517.88;;;28.14;43.57
8059;BME280;4072;42.668;23.396;2023-07-09T08:20:59;95518.59;;;28.07;43.45
8059;BME280;4072;42.668;23.396;2023-07-09T08:23:29;95522.25;;;27.94;44.16
8059;BME280;4072;42.668;23.396;2023-07-09T08:25:59;95453.44;;;27.44;43.88
8059;BME280;4072;42.668;23.396;2023-07-09T08:28:30;95524.53;;;28.03;44.48
8059;BME280;4072;42.668;23.396;2023-07-09T08:30:58;95516.25;;;28.19;44.89
8059;BME280;4072;42.668;23.396;2023-07-09T08:33:27;95527.06;;;27.86;45.34
8059;BME280;4072;42.668;23.396;2023-07-09T08:35:55;95520.56;;;27.91;44.91
8059;BME280;4072;42.668;23.396;2023-07-09T08:38:23;95525.44;;;27.98;45.22
8059;BME280;4072;42.668;23.396;2023-07-09T08:40:56;95513.44;;;28.19;45.43
8059;BME280;4072;42.668;23.396;2023-07-09T08:43:34;95520.50;;;28.20;45.70
8059;BME280;4072;42.668;23.396;2023-07-09T08:46:20;95516.38;;;28.05;46.56
8059;BME280;4072;42.668;23.396;2023-07-09T08:48:54;95506.00;;;28.13;46.56
8059;BME280;4072;42.668;23.396;2023-07-09T08:51:29;95520.22;;;27.95;48.10
8059;BME280;4072;42.668;23.396;2023-07-09T08:54:02;95519.75;;;27.40;47.99
8059;BME280;4072;42.668;23.396;2023-07-09T08:56:32;95517.84;;;27.35;49.77
8059;BME280;4072;42.668;23.396;2023-07-09T08:59:02;95519.22;;;27.49;51.63
8059;BME280;4072;42.668;23.396;2023-07-09T09:01:35;95520.66;;;27.78;51.96
8059;BME280;4072;42.668;23.396;2023-07-09T09:04:17;95520.59;;;27.63;49.11
8059;BME280;4072;42.668;23.396;2023-07-09T09:06:52;95517.63;;;27.61;49.98
8059;BME280;4072;42.668;23.396;2023-07-09T09:09:33;95517.63;;;27.89;51.00
8059;BME280;4072;42.668;23.396;2023-07-09T09:12:13;95518.22;;;28.03;48.67
8059;BME280;4072;42.668;23.396;2023-07-09T09:14:47;95517.28;;;28.08;48.76
8059;BME280;4072;42.668;23.396;2023-07-09T09:17:20;95477.38;;;27.90;47.16
8059;BME280;4072;42.668;23.396;2023-07-09T09:19:53;95504.16;;;28.08;49.84
8059;BME280;4072;42.668;23.396;2023-07-09T09:22:25;95445.78;;;27.73;49.43
8059;BME280;4072;42.668;23.396;2023-07-09T09:25:03;95501.81;;;27.84;50.32
8059;BME280;4072;42.668;23.396;2023-07-09T09:27:35;95509.84;;;27.95;52.19
8059;BME280;4072;42.668;23.396;2023-07-09T09:30:09;95498.84;;;27.82;50.97
8059;BME280;4072;42.668;23.396;2023-07-09T09:32:44;95511.84;;;27.87;50.65
8059;BME280;4072;42.668;23.396;2023-07-09T09:35:15;95466.75;;;27.38;50.32
8059;BME280;4072;42.668;23.396;2023-07-09T09:37:50;95504.47;;;27.62;52.71
8059;BME280;4072;42.668;23.396;2023-07-09T09:40:19;95511.47;;;27.83;50.74
8059;BME280;4072;42.668;23.396;2023-07-09T09:42:53;95505.22;;;27.98;49.69
8059;BME280;4072;42.668;23.396;2023-07-09T09:45:27;95508.66;;;28.27;49.15
8059;BME280;4072;42.668;23.396;2023-07-09T09:47:59;95502.59;;;28.51;48.41
8059;BME280;4072;42.668;23.396;2023-07-09T09:50:32;95494.66;;;28.62;46.44
8059;BME280;4072;42.668;23.396;2023-07-09T09:53:00;95489.81;;;28.63;47.46
8059;BME280;4072;42.668;23.396;2023-07-09T09:55:30;95491.84;;;28.70;47.63
8059;BME280;4072;42.668;23.396;2023-07-09T09:58:00;95489.44;;;28.59;48.89
8059;BME280;4072;42.668;23.396;2023-07-09T10:00:30;95490.00;;;28.57;48.73
8059;BME280;4072;42.668;23.396;2023-07-09T10:03:01;95496.84;;;28.56;45.94
8059;BME280;4072;42.668;23.396;2023-07-09T10:05:33;95486.75;;;28.31;48.44
8059;BME280;4072;42.668;23.396;2023-07-09T10:08:08;95478.06;;;28.42;46.87
8059;BME280;4072;42.668;23.396;2023-07-09T10:10:38;95483.38;;;28.09;48.40
8059;BME280;4072;42.668;23.396;2023-07-09T10:13:17;95479.16;;;27.80;48.91
8059;BME280;4072;42.668;23.396;2023-07-09T10:16:00;95485.34;;;27.86;48.08
8059;BME280;4072;42.668;23.396;2023-07-09T10:18:38;95485.19;;;27.99;47.49
8059;BME280;4072;42.668;23.396;2023-07-09T10:21:14;95474.47;;;28.03;46.18
8059;BME280;4072;42.668;23.396;2023-07-09T10:23:48;95469.00;;;28.49;46.77
8059;BME280;4072;42.668;23.396;2023-07-09T10:26:24;95402.94;;;28.34;43.55
8059;BME280;4072;42.668;23.396;2023-07-09T10:29:28;95474.41;;;28.77;45.03
8059;BME280;4072;42.668;23.396;2023-07-09T10:32:12;95473.09;;;28.63;42.61
8059;BME280;4072;42.668;23.396;2023-07-09T10:34:53;95427.03;;;28.24;41.68
8059;BME280;4072;42.668;23.396;2023-07-09T10:37:48;95444.72;;;28.64;42.95
8059;BME280;4072;42.668;23.396;2023-07-09T10:40:29;95473.50;;;28.82;42.20
8059;BME280;4072;42.668;23.396;2023-07-09T10:43:00;95467.72;;;28.80;42.04
8059;BME280;4072;42.668;23.396;2023-07-09T10:45:43;95465.50;;;29.01;41.99
8059;BME280;4072;42.668;23.396;2023-07-09T10:48:16;95424.81;;;28.98;41.45
8059;BME280;4072;42.668;23.396;2023-07-09T10:50:48;95458.91;;;29.51;40.92
8059;BME280;4072;42.668;23.396;2023-07-09T10:53:27;95461.56;;;29.34;40.16
8059;BME280;4072;42.668;23.396;2023-07-09T10:56:00;95466.00;;;29.37;40.94
8059;BME280;4072;42.668;23.396;2023-07-09T10:58:35;95459.63;;;29.59;39.03
8059;BME280;4072;42.668;23.396;2023-07-09T11:01:07;95461.50;;;29.64;38.60
8059;BME280;4072;42.668;23.396;2023-07-09T11:03:43;95464.84;;;29.70;39.47
8059;BME280;4072;42.668;23.396;2023-07-09T11:06:18;95465.91;;;29.74;37.20
8059;BME280;4072;42.668;23.396;2023-07-09T11:08:51;95467.72;;;29.87;37.76
8059;BME280;4072;42.668;23.396;2023-07-09T11:11:28;95461.44;;;29.79;37.48
8059;BME280;4072;42.668;23.396;2023-07-09T11:14:00;95382.31;;;28.97;37.86
8059;BME280;4072;42.668;23.396;2023-07-09T11:16:36;95461.88;;;29.53;37.96
8059;BME280;4072;42.668;23.396;2023-07-09T11:19:13;95462.91;;;29.80;37.48
8059;BME280;4072;42.668;23.396;2023-07-09T11:21:45;95457.44;;;29.50;37.28
8059;BME280;4072;42.668;23.396;2023-07-09T11:24:34;95464.13;;;29.47;37.33
8059;BME280;4072;42.668;23.396;2023-07-09T11:27:20;95464.88;;;29.40;38.20
8059;BME280;4072;42.668;23.396;2023-07-09T11:29:56;95458.22;;;29.35;38.33
8059;BME280;4072;42.668;23.396;2023-07-09T11:32:27;95455.00;;;29.54;37.44
8059;BME280;4072;42.668;23.396;2023-07-09T11:35:06;95462.28;;;29.42;38.28
8059;BME280;4072;42.668;23.396;2023-07-09T11:37:44;95452.63;;;29.35;38.49
8059;BME280;4072;42.668;23.396;2023-07-09T11:40:14;95451.16;;;29.42;37.42
8059;BME280;4072;42.668;23.396;2023-07-09T11:42:51;95450.19;;;29.54;37.82
8059;BME280;4072;42.668;23.396;2023-07-09T11:45:26;95450.00;;;29.45;38.73
8059;BME280;4072;42.668;23.396;2023-07-09T11:48:00;95449.84;;;29.43;38.11
8059;BME280;4072;42.668;23.396;2023-07-09T11:50:35;95441.94;;;29.71;39.72
8059;BME280;4072;42.668;23.396;2023-07-09T11:53:23;95442.88;;;29.74;39.43
8059;BME280;4072;42.668;23.396;2023-07-09T11:55:54;95445.19;;;29.38;38.63
8059;BME280;4072;42.668;23.396;2023-07-09T11:58:22;95441.31;;;29.33;38.66
8059;BME280;4072;42.668;23.396;2023-07-09T12:00:54;95418.88;;;29.24;39.11
8059;BME280;4072;42.668;23.396;2023-07-09T12:03:27;95377.66;;;29.00;40.74
8059;BME280;4072;42.668;23.396;2023-07-09T12:05:59;95436.25;;;29.47;40.69
8059;BME280;4072;42.668;23.396;2023-07-09T12:08:34;95444.44;;;29.60;40.35
8059;BME280;4072;42.668;23.396;2023-07-09T12:11:03;95392.50;;;29.17;40.16
8059;BME280;4072;42.668;23.396;2023-07-09T12:13:36;95432.13;;;29.55;40.03
8059;BME280;4072;42.668;23.396;2023-07-09T12:16:21;95355.63;;;29.41;39.36
8059;BME280;4072;42.668;23.396;2023-07-09T12:18:51;95427.44;;;29.73;39.25
8059;BME280;4072;42.668;23.396;2023-07-09T12:21:19;95423.88;;;29.80;39.33
8059;BME280;4072;42.668;23.396;2023-07-09T12:23:48;95396.38;;;29.76;37.37
8059;BME280;4072;42.668;23.396;2023-07-09T12:26:18;95435.75;;;29.88;38.50
8059;BME280;4072;42.668;23.396;2023-07-09T12:28:51;95422.50;;;29.49;38.88
8059;BME280;4072;42.668;23.396;2023-07-09T12:31:25;95424.91;;;29.60;39.85
8059;BME280;4072;42.668;23.396;2023-07-09T12:33:57;95429.56;;;29.42;40.02
8059;BME280;4072;42.668;23.396;2023-07-09T12:36:27;95414.22;;;29.11;40.83
8059;BME280;4072;42.668;23.396;2023-07-09T12:39:00;95418.34;;;28.88;41.71
8059;BME280;4072;42.668;23.396;2023-07-09T12:41:35;95416.09;;;28.94;42.31
8059;BME280;4072;42.668;23.396;2023-07-09T12:46:43;95403.88;;;28.59;41.70
8059;BME280;4072;42.668;23.396;2023-07-09T12:49:39;95405.00;;;28.64;44.12
8059;BME280;4072;42.668;23.396;2023-07-09T12:52:12;95404.44;;;29.03;42.24
8059;BME280;4072;42.668;23.396;2023-07-09T12:54:41;95397.25;;;29.39;42.18
8059;BME280;4072;42.668;23.396;2023-07-09T12:57:14;95401.53;;;29.40;40.20
8059;BME280;4072;42.668;23.396;2023-07-09T12:59:45;95391.00;;;29.24;40.73
8059;BME280;4072;42.668;23.396;2023-07-09T13:02:17;95395.59;;;29.36;40.57
8059;BME280;4072;42.668;23.396;2023-07-09T13:04:49;95394.06;;;29.90;41.86
8059;BME280;4072;42.668;23.396;2023-07-09T13:07:26;95394.94;;;30.00;40.89
8059;BME280;4072;42.668;23.396;2023-07-09T13:09:55;95391.00;;;30.10;41.40
8059;BME280;4072;42.668;23.396;2023-07-09T13:12:31;95397.91;;;30.34;40.29
8059;BME280;4072;42.668;23.396;2023-07-09T13:15:01;95398.59;;;30.42;39.49
8059;BME280;4072;42.668;23.396;2023-07-09T13:17:31;95390.97;;;30.42;39.73
8059;BME280;4072;42.668;23.396;2023-07-09T13:20:01;95392.69;;;30.06;39.74
8059;BME280;4072;42.668;23.396;2023-07-09T13:22:29;95408.69;;;29.66;39.34
8059;BME280;4072;42.668;23.396;2023-07-09T13:24:58;95407.22;;;29.65;39.94
8059;BME280;4072;42.668;23.396;2023-07-09T13:27:26;95400.50;;;29.68;42.05
8059;BME280;4072;42.668;23.396;2023-07-09T13:29:54;95405.66;;;29.32;40.98
8059;BME280;4072;42.668;23.396;2023-07-09T13:32:23;95407.00;;;29.01;42.08